Time;durP1;ratioP1;P1;durP2;ratioP2;P2;SDS_P1;SDS_P2;PMS_P1;PMS_P2;Temp;Humidity;BMP_temperature;BMP_pressure;BME280_temperature;BME280_humidity;BME280_pressure;Samples;Min_cycle;Max_cycle;Signal;HPM_P1;HPM_P2
2022/10/02 00:01:26;;;;;;;7.28;1.90;;;;;;;10.10;89.73;100590.25;7400344;19;20075;-68
2022/10/02 00:03:58;;;;;;;7.25;2.20;;;;;;;10.07;89.95;100585.94;7399681;19;20418;-68
2022/10/02 00:06:40;;;;;;;10.68;2.10;;;;;;;10.04;89.80;100600.88;7400248;19;20090;-68
2022/10/02 00:09:13;;;;;;;8.10;1.80;;;;;;;10.04;90.03;100603.50;7400115;19;20074;-68
2022/10/02 00:11:45;;;;;;;6.25;1.80;;;;;;;10.02;89.89;100605.28;7400427;19;20011;-70
2022/10/02 00:14:17;;;;;;;16.48;2.25;;;;;;;10.00;90.04;100609.72;7401025;19;20025;-66
2022/10/02 00:16:49;;;;;;;10.55;2.10;;;;;;;9.98;90.06;100616.72;7403093;19;20019;-66
2022/10/02 00:19:21;;;;;;;7.93;1.85;;;;;;;9.95;90.05;100621.13;7401915;19;20502;-66
2022/10/02 00:22:09;;;;;;;6.57;1.67;;;;;;;9.93;90.10;100617.69;7402697;19;20032;-66
2022/10/02 00:24:40;;;;;;;15.55;2.35;;;;;;;9.91;90.13;100618.63;7403080;19;20145;-66
2022/10/02 00:27:17;;;;;;;5.85;2.28;;;;;;;9.88;90.30;100622.19;7402390;19;20018;-66
2022/10/02 00:29:51;;;;;;;6.78;1.85;;;;;;;9.86;90.41;100621.34;7399715;19;20027;-66
2022/10/02 00:32:30;;;;;;;9.70;2.00;;;;;;;9.84;90.51;100630.97;7402311;19;20045;-66
2022/10/02 00:35:33;;;;;;;7.68;1.90;;;;;;;9.82;90.63;100630.16;7402437;19;20015;-66
2022/10/02 00:38:10;;;;;;;4.95;1.70;;;;;;;9.79;90.62;100630.19;7398668;19;20078;-66
2022/10/02 00:40:50;;;;;;;8.23;2.38;;;;;;;9.80;90.68;100636.31;7399298;19;20026;-66
2022/10/02 00:43:28;;;;;;;12.07;1.80;;;;;;;9.76;90.64;100632.91;7401151;19;20031;-66
2022/10/02 00:46:28;;;;;;;12.85;2.88;;;;;;;9.76;90.64;100632.91;7398609;19;20427;-66
2022/10/02 00:49:11;;;;;;;8.73;2.17;;;;;;;9.72;90.37;100636.47;7398843;19;20022;-66
2022/10/02 00:51:54;;;;;;;9.98;2.33;;;;;;;9.66;90.26;100636.59;7401447;19;20086;-65
2022/10/02 00:54:49;;;;;;;8.75;2.25;;;;;;;9.59;90.46;100647.19;7399921;19;20484;-65
2022/10/02 00:57:28;;;;;;;7.78;2.00;;;;;;;9.52;90.60;100637.72;7400289;19;20018;-65
2022/10/02 01:00:06;;;;;;;6.20;2.08;;;;;;;9.45;90.62;100639.59;7402074;19;20018;-66
2022/10/02 01:02:53;;;;;;;9.27;1.95;;;;;;;9.36;90.77;100645.00;7400861;19;20501;-65
2022/10/02 01:05:22;;;;;;;7.68;1.58;;;;;;;9.33;90.99;100647.69;7403064;19;20019;-66
2022/10/02 01:07:56;;;;;;;7.35;1.80;;;;;;;9.27;90.98;100651.25;7401910;19;20172;-65
2022/10/02 01:10:27;;;;;;;7.28;2.65;;;;;;;9.22;91.37;100650.47;7400882;19;20022;-65
2022/10/02 01:12:57;;;;;;;5.57;1.95;;;;;;;9.18;91.19;100653.19;7402126;19;20032;-66
2022/10/02 01:15:32;;;;;;;9.98;1.92;;;;;;;9.13;91.47;100658.50;7397964;19;20031;-66
2022/10/02 01:18:01;;;;;;;5.82;2.00;;;;;;;9.08;91.58;100657.72;7396665;19;20015;-67
2022/10/02 01:20:35;;;;;;;9.10;2.22;;;;;;;9.03;91.57;100649.06;7395566;19;20094;-67
2022/10/02 01:23:13;;;;;;;7.05;2.13;;;;;;;9.01;91.89;100662.19;7396997;19;20074;-66
2022/10/02 01:25:45;;;;;;;10.65;3.17;;;;;;;8.96;92.05;100662.25;7397613;19;20018;-67
2022/10/02 01:28:14;;;;;;;8.52;1.95;;;;;;;8.93;91.89;100662.31;7395717;19;20040;-67
2022/10/02 01:30:47;;;;;;;10.13;2.35;;;;;;;8.90;92.08;100664.13;7397008;19;20440;-67
2022/10/02 01:33:17;;;;;;;7.53;2.13;;;;;;;8.85;92.25;100666.81;7395766;19;20035;-67
2022/10/02 01:35:45;;;;;;;8.65;2.30;;;;;;;8.82;92.32;100664.25;7396855;19;20089;-67
2022/10/02 01:38:18;;;;;;;6.88;2.03;;;;;;;8.78;92.23;100668.66;7394665;19;20086;-66
2022/10/02 01:40:49;;;;;;;8.55;2.78;;;;;;;8.75;92.39;100666.06;7395812;19;20082;-66
2022/10/02 01:43:21;;;;;;;9.98;2.45;;;;;;;8.72;92.41;100667.88;7397219;19;20176;-67
2022/10/02 01:46:19;;;;;;;7.13;2.20;;;;;;;8.69;92.54;100665.31;7397037;19;20078;-66
2022/10/02 01:48:53;;;;;;;11.40;2.50;;;;;;;8.65;92.84;100674.94;7393415;19;20011;-67
2022/10/02 01:51:41;;;;;;;9.40;3.75;;;;;;;8.61;92.79;100671.50;7395823;19;20090;-68
2022/10/02 01:54:19;;;;;;;17.85;3.78;;;;;;;8.58;92.88;100684.66;7396135;19;20070;-68
2022/10/02 01:57:01;;;;;;;10.18;2.50;;;;;;;8.56;92.97;100681.19;7395837;19;20074;-68
2022/10/02 01:59:45;;;;;;;11.85;3.05;;;;;;;8.55;92.99;100686.44;7396266;19;20074;-67
2022/10/02 02:02:24;;;;;;;10.95;2.85;;;;;;;8.52;93.00;100689.09;7395702;19;20077;-68
2022/10/02 02:04:58;;;;;;;16.13;3.20;;;;;;;8.46;93.13;100683.06;7396424;19;20026;-68
2022/10/02 02:07:35;;;;;;;9.55;2.85;;;;;;;8.49;93.10;100687.38;7394523;19;20015;-67
2022/10/02 02:10:14;;;;;;;10.77;3.10;;;;;;;8.46;93.32;100688.28;7395569;19;20485;-68
2022/10/02 02:12:51;;;;;;;7.63;2.97;;;;;;;8.44;93.18;100689.16;7395586;19;20015;-68
2022/10/02 02:15:26;;;;;;;8.88;3.10;;;;;;;8.43;93.40;100687.47;7395506;19;20066;-67
2022/10/02 02:17:59;;;;;;;9.40;3.17;;;;;;;8.43;93.32;100697.91;7394296;19;20509;-67
2022/10/02 02:20:32;;;;;;;9.23;2.95;;;;;;;8.42;93.48;100698.78;7395093;19;20070;-66
2022/10/02 02:23:07;;;;;;;8.85;3.17;;;;;;;8.40;93.47;100714.47;7395913;19;20422;-67
2022/10/02 02:25:42;;;;;;;7.82;2.42;;;;;;;8.42;93.46;100709.25;7395107;19;20082;-67
2022/10/02 02:28:16;;;;;;;6.47;2.60;;;;;;;8.42;93.22;100699.66;7393154;19;20477;-67
2022/10/02 02:30:49;;;;;;;8.57;2.38;;;;;;;8.42;93.75;100702.25;7394947;19;20568;-67
2022/10/02 02:33:22;;;;;;;11.13;3.20;;;;;;;8.42;93.76;100704.88;7394902;19;20428;-67
2022/10/02 02:35:56;;;;;;;7.83;3.37;;;;;;;8.41;93.66;100703.13;7395657;19;20268;-68
2022/10/02 02:38:29;;;;;;;11.80;3.60;;;;;;;8.42;93.63;100698.78;7393410;19;21078;-68
2022/10/02 02:41:01;;;;;;;9.40;3.33;;;;;;;8.39;93.52;100693.59;7393372;19;20078;-67
2022/10/02 02:43:36;;;;;;;9.80;3.00;;;;;;;8.43;93.56;100700.53;7395421;19;20015;-67
2022/10/02 02:46:09;;;;;;;12.45;3.80;;;;;;;8.44;93.77;100712.69;7394695;19;20070;-68
2022/10/02 02:48:44;;;;;;;11.20;4.18;;;;;;;8.43;93.71;100705.75;7393047;19;20505;-67
2022/10/02 02:51:20;;;;;;;11.82;4.30;;;;;;;8.42;93.86;100704.88;7395240;19;20074;-67
2022/10/02 02:53:53;;;;;;;12.10;4.35;;;;;;;8.42;94.17;100710.09;7393341;19;20026;-66
2022/10/02 02:56:23;;;;;;;12.35;4.00;;;;;;;8.42;94.33;100707.50;7394722;19;20041;-66
2022/10/02 02:59:00;;;;;;;8.73;3.83;;;;;;;8.40;94.28;100701.41;7392984;19;20078;-67
2022/10/02 03:01:28;;;;;;;13.73;3.85;;;;;;;8.41;94.04;100702.28;7396182;19;20086;-66
2022/10/02 03:03:57;;;;;;;7.35;3.35;;;;;;;8.40;94.37;100704.03;7401634;19;20090;-67
2022/10/02 03:06:34;;;;;;;8.20;3.40;;;;;;;8.40;94.22;100697.94;7401950;19;20078;-66
2022/10/02 03:09:03;;;;;;;11.85;3.03;;;;;;;8.38;94.32;100700.59;7398730;19;20519;-66
2022/10/02 03:11:45;;;;;;;10.52;3.70;;;;;;;8.40;94.47;100705.78;7401419;19;20032;-67
2022/10/02 03:14:35;;;;;;;9.23;3.08;;;;;;;8.40;94.78;100708.41;7402233;19;20022;-67
2022/10/02 03:17:14;;;;;;;11.80;3.58;;;;;;;8.41;94.56;100713.59;7400711;19;20424;-66
2022/10/02 03:19:47;;;;;;;14.45;4.43;;;;;;;8.40;94.76;100704.03;7398259;19;20074;-67
2022/10/02 03:22:23;;;;;;;8.13;4.27;;;;;;;8.42;94.77;100720.56;7401771;19;20074;-66
2022/10/02 03:24:58;;;;;;;11.60;4.45;;;;;;;8.44;94.62;100720.53;7398206;19;20086;-66
2022/10/02 03:27:32;;;;;;;9.35;3.92;;;;;;;8.45;94.91;100719.66;7399828;19;20165;-67
2022/10/02 03:30:05;;;;;;;;;;;;;;;8.47;95.68;100724.00;7399646;19;20074;-68
2022/10/02 03:32:35;;;;;;;14.52;4.70;;;;;;;8.49;95.29;100723.97;7398173;19;20372;-67
2022/10/02 03:35:06;;;;;;;13.18;5.28;;;;;;;8.53;95.25;100725.69;7397941;19;20540;-67
2022/10/02 03:37:35;;;;;;;15.98;5.38;;;;;;;8.57;95.46;100727.38;7399723;19;20387;-67
2022/10/02 03:40:04;;;;;;;15.50;5.63;;;;;;;8.61;95.60;100733.44;7400119;19;20077;-68
2022/10/02 03:42:57;;;;;;;13.10;5.60;;;;;;;8.66;95.29;100733.34;7400558;19;20350;-67
2022/10/02 03:45:28;;;;;;;11.32;5.47;;;;;;;8.70;95.47;100740.28;7400833;19;20015;-67
2022/10/02 03:47:57;;;;;;;14.32;5.75;;;;;;;8.75;95.84;100744.53;7398173;19;20010;-67
2022/10/02 03:50:25;;;;;;;16.67;5.35;;;;;;;8.80;95.73;100741.88;7400525;19;20027;-68
2022/10/02 03:52:55;;;;;;;13.77;5.55;;;;;;;8.85;95.88;100739.22;7400059;19;20014;-68
2022/10/02 03:55:32;;;;;;;15.07;6.25;;;;;;;8.94;95.68;100741.69;7397793;19;20018;-68
2022/10/02 03:58:04;;;;;;;10.73;5.75;;;;;;;8.99;95.69;100739.84;7398561;19;20037;-67
2022/10/02 04:00:39;;;;;;;13.23;5.13;;;;;;;9.05;95.35;100744.09;7398987;19;20044;-68
2022/10/02 04:03:13;;;;;;;15.77;5.55;;;;;;;9.09;95.44;100740.59;7399892;19;20363;-67
2022/10/02 04:05:45;;;;;;;8.95;4.95;;;;;;;9.15;95.42;100735.25;7399784;19;20481;-67
2022/10/02 04:08:19;;;;;;;12.00;5.78;;;;;;;9.19;95.21;100731.69;7398066;19;20391;-68
2022/10/02 04:10:52;;;;;;;;;;;;;;;9.25;95.09;100738.56;7401090;19;20032;-67
2022/10/02 04:13:28;;;;;;;12.80;6.00;;;;;;;9.28;94.83;100742.00;7397243;19;19918;-67
2022/10/02 04:16:10;;;;;;;13.52;4.95;;;;;;;9.35;94.51;100748.03;7399508;19;20018;-66
2022/10/02 04:18:46;;;;;;;10.30;4.40;;;;;;;9.38;94.41;100747.97;7397182;19;20502;-67
2022/10/02 04:21:26;;;;;;;9.48;4.45;;;;;;;9.43;94.24;100747.88;7398243;19;20019;-66
2022/10/02 04:23:59;;;;;;;13.02;4.82;;;;;;;9.46;94.12;100745.19;7396708;19;20032;-67
2022/10/02 04:26:35;;;;;;;9.73;4.20;;;;;;;9.49;93.88;100752.13;7398983;19;20015;-66
2022/10/02 04:29:12;;;;;;;9.05;3.67;;;;;;;9.52;93.69;100744.25;7396933;19;20489;-67
2022/10/02 04:31:44;;;;;;;10.30;3.25;;;;;;;9.55;93.64;100725.84;7399505;19;20035;-67
2022/10/02 04:34:15;;;;;;;13.27;4.30;;;;;;;9.56;93.85;100736.28;7397194;19;20018;-67
2022/10/02 04:36:57;;;;;;;10.82;3.50;;;;;;;9.57;93.99;100742.41;7399044;19;20035;-67
2022/10/02 04:39:50;;;;;;;8.20;3.08;;;;;;;9.55;94.22;100741.56;7397253;19;20018;-67
2022/10/02 04:42:34;;;;;;;9.82;2.42;;;;;;;9.54;94.25;100732.84;7396690;19;20035;-67
2022/10/02 04:45:25;;;;;;;8.23;2.80;;;;;;;9.55;94.43;100745.03;7398384;19;20014;-68
2022/10/02 04:48:24;;;;;;;6.85;2.50;;;;;;;9.56;94.30;100744.16;7397062;19;21115;-66
2022/10/02 04:50:58;;;;;;;7.65;2.17;;;;;;;9.57;94.20;100740.63;7398565;19;20018;-66
2022/10/02 04:53:55;;;;;;;7.78;2.25;;;;;;;9.58;94.53;100745.00;7396810;19;20035;-66
2022/10/02 04:56:54;;;;;;;5.18;2.00;;;;;;;9.59;94.42;100751.09;7396656;19;20082;-67
2022/10/02 04:59:41;;;;;;;3.97;2.00;;;;;;;9.58;94.62;100747.63;7398649;19;20022;-67
2022/10/02 05:02:26;;;;;;;8.50;2.10;;;;;;;9.58;94.69;100750.25;7396868;19;20018;-67
2022/10/02 05:05:14;;;;;;;8.35;2.25;;;;;;;9.58;94.51;100746.75;7395964;19;20469;-67
2022/10/02 05:08:10;;;;;;;7.97;2.20;;;;;;;9.55;95.35;100749.41;7396703;19;20505;-67
2022/10/02 05:10:53;;;;;;;6.25;2.55;;;;;;;9.54;95.09;100747.69;7401387;19;20011;-68
2022/10/02 05:13:45;;;;;;;9.10;3.20;;;;;;;9.51;95.28;100747.75;7397322;19;20480;-68
2022/10/02 05:16:31;;;;;;;5.90;2.60;;;;;;;9.49;95.53;100760.88;7396096;19;20022;-68
2022/10/02 05:19:17;;;;;;;5.70;2.78;;;;;;;9.48;95.48;100753.91;7395689;19;20015;-68
2022/10/02 05:22:24;;;;;;;7.65;3.40;;;;;;;9.45;95.62;100746.09;7395730;19;20031;-68
2022/10/02 05:25:09;;;;;;;9.35;3.60;;;;;;;9.42;95.60;100754.00;7396533;19;20019;-67
2022/10/02 05:27:49;;;;;;;7.47;3.83;;;;;;;9.40;95.91;100750.53;7397062;19;20103;-67
2022/10/02 05:30:20;;;;;;;9.77;3.38;;;;;;;9.38;95.79;100749.72;7396802;19;20014;-66
2022/10/02 05:33:04;;;;;;;6.70;3.42;;;;;;;9.37;95.98;100758.47;7401187;19;20496;-67
2022/10/02 05:35:50;;;;;;;17.70;5.47;;;;;;;9.35;96.21;100763.72;7400616;19;20035;-66
2022/10/02 05:38:39;;;;;;;8.75;4.30;;;;;;;9.35;96.48;100762.84;7401243;19;20026;-67
2022/10/02 05:41:16;;;;;;;9.48;3.78;;;;;;;9.33;96.47;100760.25;7400057;19;20043;-66
2022/10/02 05:43:50;;;;;;;15.23;4.85;;;;;;;9.35;96.50;100766.34;7401721;19;20015;-65
2022/10/02 05:46:24;;;;;;;12.82;3.70;;;;;;;9.35;97.06;100778.56;7399915;19;20018;-65
2022/10/02 05:48:59;;;;;;;13.15;3.53;;;;;;;9.38;nan;100766.28;7399346;19;20508;-66
2022/10/02 05:51:36;;;;;;;13.40;3.78;;;;;;;9.39;96.66;100777.59;7401674;19;20419;-66
2022/10/02 05:54:18;;;;;;;11.20;3.25;;;;;;;9.42;96.75;100780.19;7401827;19;20025;-66
2022/10/02 05:56:55;;;;;;;11.55;3.28;;;;;;;9.45;96.68;100780.13;7400865;19;20022;-67
2022/10/02 05:59:30;;;;;;;13.07;3.70;;;;;;;9.49;96.47;100775.72;7401885;19;20035;-66
2022/10/02 06:02:03;;;;;;;11.07;3.42;;;;;;;9.54;96.41;100768.63;7399984;19;20018;-66
2022/10/02 06:04:43;;;;;;;12.27;4.03;;;;;;;9.57;96.28;100779.09;7399955;19;20035;-67
2022/10/02 06:07:16;;;;;;;12.40;4.00;;;;;;;9.60;96.09;100773.78;7401101;19;20028;-66
2022/10/02 06:09:49;;;;;;;14.98;3.97;;;;;;;9.62;95.89;100772.84;7400989;19;20508;-66
2022/10/02 06:12:25;;;;;;;9.13;3.53;;;;;;;9.66;95.87;100780.69;7401497;19;20011;-66
2022/10/02 06:15:02;;;;;;;11.85;3.40;;;;;;;9.67;95.76;100774.53;7400195;19;20031;-66
2022/10/02 06:17:35;;;;;;;19.92;5.07;;;;;;;9.70;95.73;100780.56;7400494;19;20037;-65
2022/10/02 06:20:16;;;;;;;12.48;4.35;;;;;;;9.76;95.67;100779.63;7400882;19;20023;-65
2022/10/02 06:22:48;;;;;;;13.35;4.18;;;;;;;9.80;95.63;100776.03;7398803;19;20436;-65
2022/10/02 06:25:27;;;;;;;9.63;3.47;;;;;;;9.84;95.34;100782.94;7399539;19;20018;-64
2022/10/02 06:28:01;;;;;;;10.77;3.97;;;;;;;9.88;94.92;100776.78;7399063;19;20018;-66
2022/10/02 06:30:34;;;;;;;10.82;3.75;;;;;;;9.93;94.72;100780.19;7398150;19;20516;-65
2022/10/02 06:33:14;;;;;;;14.10;4.82;;;;;;;9.97;94.64;100778.38;7397198;19;20022;-66
2022/10/02 06:36:05;;;;;;;13.82;4.38;;;;;;;10.01;94.41;100768.66;7396994;19;20027;-66
2022/10/02 06:38:50;;;;;;;10.45;3.50;;;;;;;10.07;94.34;100774.69;7403167;19;20014;-66
2022/10/02 06:41:31;;;;;;;11.18;3.60;;;;;;;10.10;93.99;100779.84;7405211;19;20018;-66
2022/10/02 06:44:20;;;;;;;11.82;3.78;;;;;;;10.17;93.66;100774.50;7404153;19;20010;-67
2022/10/02 06:47:01;;;;;;;14.43;4.40;;;;;;;10.24;93.69;100776.97;7407878;19;20520;-64
2022/10/02 06:49:47;;;;;;;13.05;4.80;;;;;;;10.31;93.39;100779.47;7408443;19;20481;-68
2022/10/02 06:52:27;;;;;;;8.73;3.80;;;;;;;10.37;93.13;100782.84;7404305;19;20484;-66
2022/10/02 06:55:13;;;;;;;16.88;4.05;;;;;;;10.45;92.71;100784.47;7406918;19;20014;-66
2022/10/02 06:58:09;;;;;;;14.27;3.60;;;;;;;10.51;92.71;100787.81;7406170;19;20023;-67
2022/10/02 07:00:49;;;;;;;11.10;4.13;;;;;;;10.59;92.25;100788.53;7404997;19;20018;-67
2022/10/02 07:03:37;;;;;;;11.45;3.47;;;;;;;10.66;91.82;100785.78;7405755;19;20035;-67
2022/10/02 07:06:33;;;;;;;12.45;4.20;;;;;;;10.72;91.88;100793.53;7406404;19;20023;-66
2022/10/02 07:09:24;;;;;;;11.70;3.42;;;;;;;10.76;91.80;100782.06;7405509;19;20035;-65
2022/10/02 07:11:59;;;;;;;13.13;3.20;;;;;;;10.80;91.32;100774.97;7400181;19;20015;-68
2022/10/02 07:14:49;;;;;;;12.63;3.83;;;;;;;10.85;91.33;100776.59;7401812;19;20367;-68
2022/10/02 07:17:37;;;;;;;8.40;3.53;;;;;;;10.90;90.96;100768.63;7402407;19;20018;-67
2022/10/02 07:20:40;;;;;;;12.35;3.03;;;;;;;10.95;90.13;100769.38;7403103;19;20078;-67
2022/10/02 07:23:28;;;;;;;11.23;3.22;;;;;;;10.99;90.93;100764.94;7399085;19;20431;-67
2022/10/02 07:26:15;;;;;;;8.00;3.05;;;;;;;11.05;90.13;100775.28;7401492;19;20026;-67
2022/10/02 07:28:50;;;;;;;12.80;4.63;;;;;;;11.13;89.71;100789.09;7397961;19;20722;-67
2022/10/02 07:31:30;;;;;;;13.85;4.32;;;;;;;11.23;89.33;100784.47;7400890;19;20014;-67
2022/10/02 07:34:12;;;;;;;13.88;3.50;;;;;;;11.35;89.40;100775.47;7400579;19;20014;-67
2022/10/02 07:36:51;;;;;;;11.93;3.05;;;;;;;11.46;87.88;100783.94;7400420;19;20021;-67
2022/10/02 07:39:34;;;;;;;8.20;2.75;;;;;;;11.57;87.29;100779.28;7398603;19;20029;-67
2022/10/02 07:42:29;;;;;;;8.70;2.83;;;;;;;11.67;86.36;100785.16;7398762;19;20014;-67
2022/10/02 07:45:28;;;;;;;16.35;3.78;;;;;;;11.78;87.09;100784.00;7400248;19;20023;-67
2022/10/02 07:48:32;;;;;;;9.20;3.17;;;;;;;11.86;86.95;100789.94;7399070;19;20014;-68
2022/10/02 07:51:45;;;;;;;6.70;2.60;;;;;;;11.92;86.13;100800.28;7398512;19;20090;-67
2022/10/02 07:54:14;;;;;;;14.07;5.78;;;;;;;12.03;87.29;100807.91;7399939;19;20373;-67
2022/10/02 07:56:44;;;;;;;8.25;3.30;;;;;;;12.09;86.35;100802.50;7398030;19;20083;-68
2022/10/02 07:59:17;;;;;;;11.45;3.10;;;;;;;12.14;85.95;100813.75;7398033;19;20011;-67
2022/10/02 08:01:49;;;;;;;11.23;3.08;;;;;;;12.20;85.44;100810.09;7399388;19;20015;-67
2022/10/02 08:04:31;;;;;;;9.32;2.92;;;;;;;12.23;84.03;100804.75;7399396;19;20022;-67
2022/10/02 08:07:02;;;;;;;13.82;3.33;;;;;;;12.27;84.67;100806.41;7399658;19;20030;-67
2022/10/02 08:09:36;;;;;;;14.15;4.20;;;;;;;12.31;84.31;100815.03;7397970;19;20086;-67
2022/10/02 08:12:11;;;;;;;13.90;4.13;;;;;;;12.38;84.83;100813.97;7399491;19;20015;-67
2022/10/02 08:14:43;;;;;;;13.02;3.38;;;;;;;12.40;84.63;100799.03;7399351;19;20485;-67
2022/10/02 08:17:24;;;;;;;8.27;3.45;;;;;;;12.43;83.02;100801.56;7398809;19;20018;-67
2022/10/02 08:20:00;;;;;;;11.48;3.50;;;;;;;12.45;82.20;100810.28;7399940;19;20369;-67
2022/10/02 08:22:35;;;;;;;20.38;3.70;;;;;;;12.52;81.71;100810.94;7399514;19;20029;-67
2022/10/02 08:25:09;;;;;;;14.48;4.10;;;;;;;12.59;82.85;100811.66;7397377;19;20070;-68
2022/10/02 08:27:50;;;;;;;8.30;3.20;;;;;;;12.65;82.63;100808.81;7397128;19;20494;-67
2022/10/02 08:30:25;;;;;;;11.73;4.30;;;;;;;12.73;82.46;100809.47;7396929;19;20014;-67
2022/10/02 08:32:55;;;;;;;11.13;3.88;;;;;;;12.80;82.39;100802.25;7397325;19;20405;-66
2022/10/02 08:35:37;;;;;;;9.80;3.47;;;;;;;12.86;80.66;100823.13;7398691;19;20339;-67
2022/10/02 08:38:18;;;;;;;10.70;3.05;;;;;;;12.93;81.08;100816.78;7397756;19;20018;-66
2022/10/02 08:41:14;;;;;;;7.45;3.55;;;;;;;13.02;79.88;100799.84;7398350;19;20011;-67
2022/10/02 08:44:21;;;;;;;11.23;3.13;;;;;;;13.08;79.96;100802.28;7397058;19;20025;-67
2022/10/02 08:47:16;;;;;;;9.43;3.35;;;;;;;13.12;78.89;100805.69;7396107;19;20018;-67
2022/10/02 08:50:21;;;;;;;16.52;3.78;;;;;;;13.17;78.69;100801.97;7398808;19;20093;-67
2022/10/02 08:53:20;;;;;;;;;;;;;;;13.16;78.33;100808.16;7398103;19;20025;-67
2022/10/02 08:56:06;;;;;;;12.15;3.22;;;;;;;13.19;79.99;100808.06;7397455;19;20371;-67
2022/10/02 08:59:07;;;;;;;9.88;2.30;;;;;;;13.23;79.03;100815.88;7394294;19;20489;-66
2022/10/02 09:02:08;;;;;;;7.68;2.22;;;;;;;13.23;78.20;100800.94;7397644;19;20029;-67
2022/10/02 09:05:09;;;;;;;10.07;3.40;;;;;;;13.27;79.06;100801.66;7397427;19;20510;-67
2022/10/02 09:08:16;;;;;;;7.63;2.60;;;;;;;13.29;78.59;100803.34;7397191;19;20015;-66
2022/10/02 09:11:24;;;;;;;7.22;2.58;;;;;;;13.34;78.83;100803.22;7398218;19;20031;-67
2022/10/02 09:14:32;;;;;;;11.10;3.35;;;;;;;13.36;78.77;100790.84;7398136;19;20031;-67
2022/10/02 09:17:17;;;;;;;8.65;2.85;;;;;;;13.35;79.16;100792.63;7397702;19;20014;-66
2022/10/02 09:20:07;;;;;;;8.43;2.53;;;;;;;13.32;79.07;100790.09;7397313;19;20481;-67
2022/10/02 09:23:04;;;;;;;11.65;4.18;;;;;;;13.36;80.17;100790.84;7396444;19;20433;-68
2022/10/02 09:25:39;;;;;;;11.20;2.95;;;;;;;13.42;80.33;100782.78;7396837;19;20365;-68
2022/10/02 09:28:50;;;;;;;6.72;3.20;;;;;;;13.52;79.51;100784.19;7396249;19;20082;-67
2022/10/02 09:32:02;;;;;;;12.57;2.80;;;;;;;13.64;79.51;100777.63;7391604;19;20014;-68
2022/10/02 09:35:15;;;;;;;8.40;2.40;;;;;;;13.72;78.98;100776.53;7396988;19;20347;-67
2022/10/02 09:38:26;;;;;;;5.15;2.85;;;;;;;13.72;77.83;100784.44;7395641;19;20010;-67
2022/10/02 09:41:23;;;;;;;9.27;3.38;;;;;;;13.74;78.61;100777.34;7392257;19;20350;-68
2022/10/02 09:44:28;;;;;;;8.07;3.40;;;;;;;13.78;79.56;100777.16;7395573;19;20022;-68
2022/10/02 09:47:38;;;;;;;9.15;3.60;;;;;;;13.83;77.84;100761.19;7396383;19;20010;-67
2022/10/02 09:50:28;;;;;;;9.75;3.30;;;;;;;13.89;77.20;100782.09;7396819;19;20019;-67
2022/10/02 09:53:25;;;;;;;8.93;3.13;;;;;;;13.98;78.05;100760.63;7395709;19;20101;-67
2022/10/02 09:56:24;;;;;;;7.85;3.22;;;;;;;14.07;76.43;100758.59;7396069;19;20427;-68
2022/10/02 09:59:46;;;;;;;10.23;3.55;;;;;;;14.18;74.60;100757.28;7394558;19;20010;-68
2022/10/02 10:02:44;;;;;;;8.27;3.45;;;;;;;14.30;73.04;100766.53;7391804;19;20018;-70
2022/10/02 10:05:53;;;;;;;9.43;3.03;;;;;;;14.37;72.87;100766.28;7395661;19;20014;-70
2022/10/02 10:08:55;;;;;;;9.48;3.28;;;;;;;14.41;72.71;100757.38;7394149;19;20423;-71
2022/10/02 10:11:48;;;;;;;13.13;3.60;;;;;;;14.48;74.09;100757.06;7391029;19;20022;-69
2022/10/02 10:14:47;;;;;;;9.05;4.22;;;;;;;14.60;72.62;100757.53;7395666;19;20010;-69
2022/10/02 10:18:09;;;;;;;11.48;2.90;;;;;;;14.76;71.49;100758.69;7395497;19;20018;-69
2022/10/02 10:21:13;;;;;;;11.88;2.92;;;;;;;14.91;71.19;100751.06;7395128;19;20014;-70
2022/10/02 10:24:09;;;;;;;9.32;2.88;;;;;;;14.98;71.54;100752.56;7393195;19;20517;-69
2022/10/02 10:27:12;;;;;;;9.05;2.35;;;;;;;14.97;70.45;100783.41;7395502;19;20073;-68
2022/10/02 10:30:21;;;;;;;7.68;2.88;;;;;;;14.92;74.16;100787.13;7391788;19;20011;-69
2022/10/02 10:33:17;;;;;;;10.93;2.92;;;;;;;14.73;77.67;100768.50;7394975;19;20066;-69
2022/10/02 10:36:00;;;;;;;9.38;3.13;;;;;;;14.34;79.69;100770.78;7395285;19;20015;-69
2022/10/02 10:38:49;;;;;;;10.23;2.90;;;;;;;13.96;82.03;100822.28;7393911;19;20037;-69
2022/10/02 10:41:51;;;;;;;7.88;2.92;;;;;;;13.69;82.78;100775.69;7395306;19;20011;-69
2022/10/02 10:44:52;;;;;;;6.60;2.42;;;;;;;13.52;84.24;100784.19;7394520;19;20024;-69
2022/10/02 10:47:52;;;;;;;10.50;3.30;;;;;;;13.30;85.56;100777.88;7394376;19;20031;-70
2022/10/02 10:50:55;;;;;;;10.90;2.90;;;;;;;13.11;86.22;100783.72;7395152;19;20072;-69
2022/10/02 10:54:07;;;;;;;5.50;2.15;;;;;;;12.93;85.73;100772.00;7395315;19;20026;-69
2022/10/02 10:56:43;;;;;;;6.75;2.50;;;;;;;12.77;84.97;100779.50;7392859;19;20027;-69
2022/10/02 10:59:47;;;;;;;5.40;2.05;;;;;;;12.62;84.80;100772.06;7394919;19;20011;-70
2022/10/02 11:02:58;;;;;;;3.88;1.98;;;;;;;12.47;85.23;100781.28;7393190;19;20019;-71
2022/10/02 11:06:19;;;;;;;6.95;1.90;;;;;;;12.34;86.09;100760.56;7394027;19;20511;-69
2022/10/02 11:09:18;;;;;;;6.15;1.63;;;;;;;12.28;86.42;100763.38;7392139;19;20023;-70
2022/10/02 11:12:03;;;;;;;6.07;2.50;;;;;;;12.28;87.00;100757.28;7392548;19;20022;-70
2022/10/02 11:14:44;;;;;;;5.65;2.13;;;;;;;12.29;86.87;100759.84;7394359;19;20040;-69
2022/10/02 11:17:33;;;;;;;5.72;2.25;;;;;;;12.35;86.84;100764.09;7392856;19;20037;-70
2022/10/02 11:20:43;;;;;;;5.93;2.35;;;;;;;12.41;87.02;100756.03;7394403;19;20015;-69
2022/10/02 11:24:06;;;;;;;9.23;3.20;;;;;;;12.49;88.46;100746.13;7394855;19;20089;-68
2022/10/02 11:26:48;;;;;;;6.50;2.65;;;;;;;12.57;86.99;100732.72;7397601;19;20489;-67
2022/10/02 11:29:41;;;;;;;8.77;3.00;;;;;;;12.68;88.20;100735.91;7401461;19;20032;-68
2022/10/02 11:32:34;;;;;;;8.40;3.40;;;;;;;12.80;87.93;100729.41;7398689;19;20022;-67
2022/10/02 11:35:22;;;;;;;9.68;3.13;;;;;;;12.96;88.11;100731.56;7401246;19;20022;-68
2022/10/02 11:38:13;;;;;;;8.73;2.80;;;;;;;13.10;87.77;100739.00;7398312;19;20018;-68
2022/10/02 11:41:14;;;;;;;7.50;3.70;;;;;;;13.27;87.15;100730.53;7400299;19;20371;-69
2022/10/02 11:44:10;;;;;;;8.57;3.25;;;;;;;13.44;86.12;100743.19;7397804;19;20035;-68
2022/10/02 11:47:08;;;;;;;8.50;3.25;;;;;;;13.65;84.73;100723.16;7399866;19;20011;-69
2022/10/02 11:50:21;;;;;;;11.25;3.95;;;;;;;13.81;83.71;100723.47;7397585;19;20018;-68
2022/10/02 11:53:34;;;;;;;7.50;2.80;;;;;;;13.92;83.83;100725.72;7399580;19;20082;-67
2022/10/02 11:56:25;;;;;;;9.80;3.47;;;;;;;13.98;84.05;100717.59;7397682;19;20382;-67
2022/10/02 11:59:08;;;;;;;12.15;5.95;;;;;;;14.02;84.00;100716.56;7397682;19;20031;-68
2022/10/02 12:01:44;;;;;;;11.60;4.07;;;;;;;14.02;82.75;100725.31;7400616;19;20018;-68
2022/10/02 12:04:22;;;;;;;12.55;4.03;;;;;;;14.04;82.29;100727.03;7397587;19;20022;-68
2022/10/02 12:07:05;;;;;;;12.23;5.10;;;;;;;14.06;82.79;100730.50;7399257;19;20018;-68
2022/10/02 12:09:47;;;;;;;11.82;4.68;;;;;;;14.10;82.57;100738.25;7399679;19;20488;-68
2022/10/02 12:12:29;;;;;;;14.05;4.50;;;;;;;14.16;80.24;100732.72;7401005;19;20015;-69
2022/10/02 12:15:08;;;;;;;18.35;4.50;;;;;;;14.25;80.73;100734.16;7399192;19;20018;-68
2022/10/02 12:17:59;;;;;;;16.67;5.65;;;;;;;14.47;80.05;100731.59;7398109;19;20023;-68
2022/10/02 12:29:23;;;;;;;8.80;3.10;;;;;;;15.36;74.72;100741.34;7398648;19;20024;-68
2022/10/02 12:32:09;;;;;;;12.07;2.90;;;;;;;15.38;74.30;100755.34;7396415;19;20006;-69
2022/10/02 12:34:48;;;;;;;10.15;2.78;;;;;;;15.19;75.68;100756.13;7397059;19;20103;-69
2022/10/02 12:37:24;;;;;;;4.57;1.88;;;;;;;14.72;76.69;100757.09;7397334;19;20014;-69
2022/10/02 12:40:02;;;;;;;5.55;2.00;;;;;;;14.29;78.09;100750.75;7398364;19;20377;-69
2022/10/02 12:42:59;;;;;;;3.97;1.95;;;;;;;13.92;79.25;100745.03;7398052;19;20014;-68
2022/10/02 12:45:58;;;;;;;6.35;2.10;;;;;;;13.66;79.90;100752.09;7399019;19;20036;-68
2022/10/02 12:48:57;;;;;;;5.07;2.05;;;;;;;13.48;80.44;100743.06;7396521;19;20377;-68
2022/10/02 12:51:36;;;;;;;9.18;2.80;;;;;;;13.47;81.01;100746.59;7398972;19;20025;-68
2022/10/02 12:54:36;;;;;;;8.52;2.90;;;;;;;13.58;80.47;100751.47;7398050;19;20509;-67